• Join FlightAware (Why Join?)
  • Login
  • US Flag 
01:07AM EDT


 

Airport Tracker/Info


-or-


 

Live Flight TrackerFlight Track Log ✈ DAL38 ✈ 15-Jun-2013 ✈ KATL - EGLL / LHR

Flight Track Log - Related Links

Times and Time Zones

All times are in EDT time to prevent confusion due to time zone crossing. See the DAL38 flight status page for this flight to view local times or setup timezone preferences in your user account.

Time Position Orientation Groundspeed Altitude Reporting Facility
EDT Latitude Longitude Course Direction KTS MPH feet Rate Location/Type
05:48PM 33.6370 -84.4290 North 15 17  Level FlightAware
05:48PM 33.6370 -84.4300 270° West 60 Level FlightAware
05:50PM 33.6360 -84.4300 180° South 60 Level FlightAware
05:51PM 33.6340 -84.4300 73° East 24 28 60 Level FlightAware
05:52PM 33.7958 -84.2362 73° East  Level Estimated
05:52PM 33.6330 -84.4300 180° South 32 37  Level FlightAware
05:52PM 33.6320 -84.4310 220° Southwest 34 39 60 Level FlightAware
05:52PM 33.6360 -84.4310 360° North 34 39 60 Level FlightAware
05:54PM 33.6320 -84.4370 73° East 21 24 60 Level FlightAware
05:55PM 33.8196 -84.2082 73° East  Level Estimated
05:55PM 33.6310 -84.4400 248° West 30 35  Level FlightAware
05:56PM 33.6310 -84.4430 270° West 26 30 120 Level FlightAware
05:56PM 33.6310 -84.4450 270° West 22 25 120 Level FlightAware
05:57PM 33.6310 -84.4470 270° West 14 16 120 Level FlightAware
05:58PM 33.6310 -84.4480 270° West 15 17 120 Level FlightAware
05:59PM 33.6300 -84.4490 220° Southwest 10 12 120 Level FlightAware
06:01PM 33.6300 -84.4510 54° Northeast 18 21 120 Level FlightAware
06:02PM 33.8733 -84.1536 54° Northeast  Level Estimated
06:02PM 33.6290 -84.4530 239° Southwest 15 17  Level FlightAware
06:04PM 33.6290 -84.4540 270° West 10 12 240 Level FlightAware
06:04PM 33.6290 -84.4550 270° West 17 20 300 Level FlightAware
06:07PM 33.8440 -84.1941 73° East  Level Estimated
06:08PM 33.9334 -84.0850 54° Northeast  Level Estimated
06:08PM 33.6270 -84.4580 54° Northeast 36 41  Level FlightAware
06:09PM 33.6260 -84.4410 94° East 165 190 1,680 Level FlightAware
06:09PM 33.6260 -84.4040 90° East 198 228 1,800 3,000 Climbing FlightAware
06:09PM 33.6260 -84.3910 90° East 198 228 2,300 1,320 Climbing FlightAware
06:10PM 33.6260 -84.3580 90° East 237 273 2,700 1,080 Climbing FlightAware
06:10PM 33.6260 -84.3170 90° East 262 302 3,400 2,220 Climbing FlightAware
06:11PM 33.6250 -84.2650 91° East 264 304 5,100 2,580 Climbing FlightAware
06:12PM 33.6250 -84.1980 90° East 272 313 7,000 2,340 Climbing FlightAware
06:12PM 33.6250 -84.1490 90° East 284 327 8,200 2,160 Climbing FlightAware
06:13PM 33.6320 -84.1050 79° East 296 341 9,100 1,800 Climbing FlightAware
06:13PM 33.6450 -84.0860 51° Northeast 297 342 9,500 1,860 Climbing FlightAware
06:14PM 33.6830 -84.0420 44° Northeast 309 356 10,800 1,380 Climbing FlightAware
06:14PM 33.7290 -83.9810 48° Northeast 351 404 11,500 1,020 Climbing FlightAware
06:15PM 33.7740 -83.9230 47° Northeast 373 429 12,400 1,320 Climbing FlightAware
06:16PM 33.8450 -83.8320 47° Northeast 415 478 13,600 1,680 Climbing FlightAware
06:17PM 33.8990 -83.7610 47° Northeast 428 493 14,900 1,860 Climbing FlightAware
06:17PM 33.9540 -83.6790 51° Northeast 440 506 16,300 1,980 Climbing FlightAware
06:18PM 34.0090 -83.5910 53° Northeast 445 512 17,900 2,040 Climbing FlightAware
06:19PM 34.0600 -83.5100 53° Northeast 451 519 19,200 1,800 Climbing FlightAware
06:19PM 34.1110 -83.4290 53° Northeast 457 526 20,300 1,560 Climbing FlightAware
06:20PM 34.1840 -83.3120 53° Northeast 465 535 21,800 1,620 Climbing FlightAware
06:21PM 34.2400 -83.2230 53° Northeast 466 536 23,000 1,440 Climbing FlightAware
06:22PM 34.2970 -83.1320 53° Northeast 476 548 23,900 1,200 Climbing FlightAware
06:22PM 34.3458 -83.0528 53° Northeast 486 559 24,600 1,200 Climbing FlightAware ADS-B
06:23PM 34.4070 -82.9540 53° Northeast 491 565 25,600 1,380 Climbing FlightAware
06:23PM 34.4376 -82.9044 53° Northeast 490 564 26,200 1,680 Climbing FlightAware ADS-B
06:24PM 34.5190 -82.7720 53° Northeast 483 556 28,000 1,620 Climbing FlightAware
06:25PM 34.5434 -82.7328 53° Northeast 483 556 28,400 1,440 Climbing FlightAware ADS-B
06:25PM 34.5970 -82.6460 53° Northeast 481 554 29,400 1,560 Climbing FlightAware
06:26PM 34.6490 -82.5610 53° Northeast 474 545 30,500 1,140 Climbing FlightAware
06:27PM 34.7070 -82.4650 54° Northeast 479 551 31,000 420 Climbing FlightAware
06:27PM 34.7313 -82.4255 53° Northeast 478 550 31,000  Level FlightAware ADS-B
06:28PM 34.7727 -82.3577 53° Northeast 479 551 31,000  Level FlightAware ADS-B
06:28PM 34.8130 -82.2920 53° Northeast 478 550 31,000  Level FlightAware
06:29PM 34.8434 -82.2411 54° Northeast 478 550 31,000  Level FlightAware ADS-B
06:29PM 34.8900 -82.1643 53° Northeast 478 550 31,000  Level FlightAware ADS-B
06:30PM 34.9303 -82.0975 54° Northeast 477 549 31,000  Level FlightAware ADS-B
06:30PM 34.9694 -82.0328 54° Northeast 475 547 31,000  Level FlightAware ADS-B
06:31PM 35.0084 -81.9676 54° Northeast 474 545 31,000  Level FlightAware ADS-B
06:31PM 35.0465 -81.8994 56° Northeast 473 544 31,000  Level FlightAware ADS-B
06:32PM 35.0851 -81.8273 57° Northeast 473 544 31,000  Level FlightAware ADS-B
06:32PM 35.1225 -81.7569 57° Northeast 472 543 31,000  Level FlightAware ADS-B
06:33PM 35.1580 -81.6895 57° Northeast 472 543 31,000  Level FlightAware ADS-B
06:33PM 35.1940 -81.6217 57° Northeast 472 543 31,000  Level FlightAware ADS-B
06:34PM 35.2368 -81.5406 57° Northeast 471 542 31,000  Level FlightAware ADS-B
06:35PM 35.2875 -81.4440 57° Northeast 471 542 31,000  Level FlightAware ADS-B
06:35PM 35.3367 -81.3504 57° Northeast 473 544 31,000  Level FlightAware ADS-B
06:36PM 35.3745 -81.2783 57° Northeast 474 545 31,000  Level FlightAware ADS-B
06:37PM 35.4340 -81.1650 57° Northeast 474 545 31,000  Level FlightAware
06:37PM 35.4694 -81.0967 58° Northeast 475 547 31,000  Level FlightAware ADS-B
06:38PM 35.5010 -81.0350 58° Northeast 476 548 31,000  Level FlightAware
06:39PM 35.5650 -80.9120 57° Northeast 476 548 31,000  Level FlightAware
06:39PM 35.6090 -80.8280 57° Northeast 478 550 31,000 600 Level FlightAware
06:40PM 35.6620 -80.7260 57° Northeast 474 545 31,900 1,200 Climbing FlightAware
06:41PM 35.7080 -80.6350 58° Northeast 467 537 32,700 840 Climbing FlightAware
06:41PM 35.7500 -80.5540 57° Northeast 466 536 33,000 180 Climbing FlightAware
06:42PM 35.7970 -80.4630 57° Northeast 466 536 33,000  Level FlightAware
06:43PM 35.8340 -80.3900 58° Northeast 466 536 33,000  Level FlightAware
06:43PM 35.8810 -80.2960 58° Northeast 466 536 33,000  Level FlightAware
06:44PM 35.9540 -80.1550 57° Northeast 470 541 33,000  Level FlightAware
06:45PM 35.9900 -80.0830 58° Northeast 470 541 33,000  Level FlightAware
06:46PM 36.0550 -79.9570 57° Northeast 471 542 33,000  Level FlightAware
06:47PM 36.1150 -79.8440 57° Northeast 471 542 33,000  Level FlightAware
06:47PM 36.1490 -79.7790 57° Northeast 471 542 33,000  Level FlightAware
06:48PM 36.1990 -79.6820 57° Northeast 471 542 33,000  Level FlightAware
06:49PM 36.2360 -79.6130 56° Northeast 471 542 33,000  Level FlightAware
06:49PM 36.2840 -79.5210 57° Northeast 471 542 33,000  Level FlightAware
06:50PM 36.3260 -79.4420 57° Northeast 471 542 33,000  Level FlightAware
06:51PM 36.4480 -79.2650 49° Northeast 33,000  Level FlightAware
06:52PM 36.5210 -79.1350 55° Northeast 33,000  Level FlightAware
06:52PM 36.5720 -79.0430 55° Northeast 463 533 33,000  Level FlightAware
06:53PM 36.6260 -78.9460 55° Northeast 462 532 33,000  Level FlightAware
06:54PM 36.6660 -78.8750 55° Northeast 462 532 33,000  Level FlightAware
06:55PM 36.7220 -78.7730 56° Northeast 468 539 33,000  Level FlightAware
06:55PM 36.7760 -78.6750 55° Northeast 463 533 33,000  Level FlightAware
06:56PM 36.8310 -78.5770 55° Northeast 467 537 33,000  Level FlightAware
06:56PM 36.8570 -78.5480 42° Northeast 454 522 33,000  Level FlightAware
06:57PM 36.9280 -78.4710 41° Northeast 457 526 33,000  Level FlightAware
06:58PM 36.9890 -78.4000 43° Northeast 459 528 33,000  Level FlightAware
06:58PM 37.0540 -78.3210 44° Northeast 458 527 33,000  Level FlightAware
06:59PM 37.1350 -78.2270 43° Northeast 456 525 33,000  Level FlightAware
07:00PM 37.2030 -78.1530 41° Northeast 456 525 33,000  Level FlightAware
07:01PM 37.2850 -78.0590 42° Northeast 455 524 33,000  Level FlightAware
07:02PM 37.3630 -77.9710 42° Northeast 454 522 33,000  Level FlightAware
07:02PM 37.4260 -77.8990 42° Northeast 455 524 33,000  Level FlightAware
07:03PM 37.4780 -77.8400 42° Northeast 454 522 33,000  Level FlightAware
07:04PM 37.5550 -77.7520 42° Northeast 453 521 33,000  Level FlightAware
07:04PM 37.6270 -77.6710 42° Northeast 454 522 33,000  Level FlightAware
07:05PM 37.7100 -77.5760 42° Northeast 453 521 33,000  Level FlightAware
07:06PM 37.7750 -77.5010 42° Northeast 451 519 33,000  Level FlightAware
07:07PM 37.8400 -77.4250 43° Northeast 450 518 33,000  Level FlightAware
07:07PM 37.9020 -77.3540 42° Northeast 448 516 33,000  Level FlightAware
07:08PM 37.9589 -77.2886 42° Northeast 447 514 33,000  Level FlightAware ADS-B
07:09PM 38.0115 -77.2277 42° Northeast 445 512 33,000  Level FlightAware ADS-B
07:09PM 38.0891 -77.1378 42° Northeast 443 510 33,000  Level FlightAware ADS-B
07:10PM 38.1620 -77.0530 42° Northeast 441 507 33,000  Level FlightAware
07:11PM 38.1869 -77.0239 43° Northeast 442 509 33,000  Level FlightAware ADS-B
07:11PM 38.2404 -76.9611 43° Northeast 439 505 33,000  Level FlightAware ADS-B
07:12PM 38.2866 -76.9070 43° Northeast 439 505 33,000  Level FlightAware ADS-B
07:12PM 38.3482 -76.8348 43° Northeast 439 505 33,000  Level FlightAware ADS-B
07:13PM 38.3979 -76.7764 43° Northeast 440 506 33,000  Level FlightAware ADS-B
07:13PM 38.4439 -76.7224 43° Northeast 441 507 33,000  Level FlightAware ADS-B
07:14PM 38.4911 -76.6667 43° Northeast 440 506 33,000  Level FlightAware ADS-B
07:14PM 38.5403 -76.6083 43° Northeast 439 505 33,000  Level FlightAware ADS-B
07:15PM 38.5860 -76.5541 43° Northeast 439 505 33,000  Level FlightAware ADS-B
07:16PM 38.6327 -76.4988 43° Northeast 438 504 33,000  Level FlightAware ADS-B
07:16PM 38.6860 -76.4351 43° Northeast 437 503 33,000  Level FlightAware ADS-B
07:17PM 38.7326 -76.3797 43° Northeast 437 503 33,000  Level FlightAware ADS-B
07:17PM 38.7810 -76.3218 43° Northeast 439 505 33,000  Level FlightAware ADS-B
07:18PM 38.8268 -76.2673 43° Northeast 439 505 33,000  Level FlightAware ADS-B
07:18PM 38.8716 -76.2133 43° Northeast 440 506 33,000  Level FlightAware ADS-B
07:19PM 38.9197 -76.1557 43° Northeast 441 507 33,000  Level FlightAware ADS-B
07:19PM 38.9652 -76.1007 43° Northeast 441 507 33,000  Level FlightAware ADS-B
07:20PM 39.0125 -76.0438 43° Northeast 441 507 33,000  Level FlightAware ADS-B
07:20PM 39.0569 -75.9899 43° Northeast 441 507 33,000  Level FlightAware ADS-B
07:21PM 39.1017 -75.9358 43° Northeast 441 507 33,000  Level FlightAware ADS-B
07:21PM 39.1465 -75.8812 43° Northeast 441 507 33,000  Level FlightAware ADS-B
07:22PM 39.1932 -75.8245 43° Northeast 442 509 33,000  Level FlightAware ADS-B
07:22PM 39.2392 -75.7684 43° Northeast 442 509 33,000  Level FlightAware ADS-B
07:23PM 39.2862 -75.7111 43° Northeast 444 511 33,000  Level FlightAware ADS-B
07:23PM 39.3327 -75.6539 44° Northeast 445 512 33,000  Level FlightAware ADS-B
07:24PM 39.3794 -75.5967 43° Northeast 447 514 33,000  Level FlightAware ADS-B
07:24PM 39.4246 -75.5411 44° Northeast 447 514 33,000  Level FlightAware ADS-B
07:25PM 39.4711 -75.4838 44° Northeast 449 517 33,000  Level FlightAware ADS-B
07:25PM 39.5169 -75.4271 44° Northeast 450 518 33,000  Level FlightAware ADS-B
07:26PM 39.5636 -75.3694 44° Northeast 450 518 33,000  Level FlightAware ADS-B
07:26PM 39.6088 -75.3133 44° Northeast 451 519 33,000  Level FlightAware ADS-B
07:27PM 39.6562 -75.2544 44° Northeast 451 519 33,000  Level FlightAware ADS-B
07:28PM 39.7054 -75.1932 44° Northeast 452 520 33,000  Level FlightAware ADS-B
07:28PM 39.7514 -75.1357 44° Northeast 453 521 33,000  Level FlightAware ADS-B
07:29PM 39.7969 -75.0786 44° Northeast 453 521 33,000  Level FlightAware ADS-B
07:29PM 39.8436 -75.0203 44° Northeast 453 521 33,000  Level FlightAware ADS-B
07:30PM 39.8902 -74.9614 44° Northeast 453 521 33,000  Level FlightAware ADS-B
07:30PM 39.9366 -74.8997 46° Northeast 456 525 33,000  Level FlightAware ADS-B
07:31PM 39.9801 -74.8368 48° Northeast 457 526 33,000  Level FlightAware ADS-B
07:31PM 40.0226 -74.7748 48° Northeast 457 526 33,000  Level FlightAware ADS-B
07:32PM 40.0650 -74.7135 48° Northeast 455 524 33,000  Level FlightAware ADS-B
07:32PM 40.1051 -74.6559 48° Northeast 455 524 33,000  Level FlightAware ADS-B
07:33PM 40.1476 -74.5947 48° Northeast 454 522 33,000  Level FlightAware ADS-B
07:33PM 40.1908 -74.5325 48° Northeast 452 520 33,000  Level FlightAware ADS-B
07:34PM 40.2345 -74.4694 48° Northeast 452 520 33,000  Level FlightAware ADS-B
07:34PM 40.2780 -74.4064 48° Northeast 452 520 33,000  Level FlightAware ADS-B
07:35PM 40.3218 -74.3425 48° Northeast 453 521 33,000  Level FlightAware ADS-B
07:35PM 40.3641 -74.2808 48° Northeast 452 520 33,000  Level FlightAware ADS-B
07:36PM 40.4109 -74.2124 48° Northeast 450 518 33,000  Level FlightAware ADS-B
07:36PM 40.4531 -74.1505 48° Northeast 447 514 33,000  Level FlightAware ADS-B
07:37PM 40.4957 -74.0880 48° Northeast 444 511 33,000  Level FlightAware ADS-B
07:37PM 40.5394 -74.0238 48° Northeast 442 509 33,000  Level FlightAware ADS-B
07:38PM 40.5800 -73.9637 48° Northeast 440 506 33,000  Level FlightAware ADS-B
07:38PM 40.6228 -73.9005 48° Northeast 438 504 33,000  Level FlightAware ADS-B
07:39PM 40.6639 -73.8397 48° Northeast 438 504 33,000  Level FlightAware ADS-B
07:39PM 40.7060 -73.7773 48° Northeast 436 502 33,000  Level FlightAware ADS-B
07:40PM 40.7463 -73.7170 49° Northeast 437 503 33,000  Level FlightAware ADS-B
07:40PM 40.7877 -73.6554 48° Northeast 438 504 33,000  Level FlightAware ADS-B
07:41PM 40.8301 -73.5917 49° Northeast 439 505 33,000  Level FlightAware ADS-B
07:41PM 40.8711 -73.5302 49° Northeast 441 507 33,000  Level FlightAware ADS-B
07:42PM 40.9122 -73.4686 49° Northeast 444 511 33,000  Level FlightAware ADS-B
07:42PM 40.9480 -73.4145 49° Northeast 444 511 33,000  Level FlightAware ADS-B
07:43PM 40.9889 -73.3527 49° Northeast 444 511 33,000  Level FlightAware ADS-B
07:43PM 41.0310 -73.2892 49° Northeast 445 512 33,000  Level FlightAware ADS-B
07:44PM 41.0715 -73.2278 49° Northeast 445 512 33,000  Level FlightAware ADS-B
07:44PM 41.1139 -73.1636 49° Northeast 444 511 33,000  Level FlightAware ADS-B
07:45PM 41.1568 -73.0982 49° Northeast 443 510 33,000  Level FlightAware ADS-B
07:45PM 41.1980 -73.0353 49° Northeast 442 509 33,000  Level FlightAware ADS-B
07:46PM 41.2414 -72.9689 49° Northeast 442 509 33,000  Level FlightAware ADS-B
07:46PM 41.2816 -72.9073 49° Northeast 441 507 33,000  Level FlightAware ADS-B
07:48PM 41.3740 -72.7650 49° Northeast 440 506 33,000  Level FlightAware
07:48PM 41.3923 -72.7366 49° Northeast 440 506 33,000  Level FlightAware ADS-B
07:48PM 41.4410 -72.6610 49° Northeast 441 507 33,000  Level FlightAware ADS-B
07:50PM 41.5240 -72.4670 60° Northeast 468 539 33,000  Level FlightAware
07:50PM 41.5430 -72.4070 67° East 466 536 33,000  Level FlightAware
07:51PM 41.6000 -72.2260 67° East 468 539 33,000  Level FlightAware
07:52PM 41.6400 -72.0960 68° East 466 536 33,000  Level FlightAware
07:53PM 41.6900 -71.9350 67° East 461 531 33,000  Level FlightAware
07:54PM 41.7230 -71.8260 68° East 460 529 33,000  Level FlightAware
07:55PM 41.7550 -71.7230 67° East 455 524 33,000 60 Level FlightAware
07:55PM 41.7910 -71.6120 66° East 453 521 33,100 660 Climbing FlightAware
07:56PM 41.8270 -71.4980 67° East 447 514 34,000 600 Climbing FlightAware
07:57PM 41.8630 -71.3840 67° East 442 509 34,000  Level FlightAware
07:57PM 41.8960 -71.2790 67° East 442 509 34,000  Level FlightAware
07:58PM 41.9260 -71.1830 67° East 442 509 34,000  Level FlightAware
07:59PM 41.9600 -71.0750 67° East 443 510 34,000  Level FlightAware
08:00PM 41.9910 -70.9740 68° East 444 511 34,000  Level FlightAware
08:00PM 42.0260 -70.8610 67° East 444 511 34,000  Level FlightAware
08:01PM 42.0570 -70.7620 67° East 444 511 34,000  Level FlightAware
08:02PM 42.0920 -70.6490 67° East 446 513 34,000  Level FlightAware
08:02PM 42.1230 -70.5470 68° East 446 513 34,000  Level FlightAware
08:03PM 42.1600 -70.4260 68° East 447 514 34,000  Level FlightAware
08:04PM 42.1890 -70.3310 68° East 447 514 34,000  Level FlightAware
08:04PM 42.2240 -70.2180 67° East 447 514 34,000  Level FlightAware
08:05PM 42.2600 -70.0990 68° East 447 514 34,000  Level FlightAware
08:06PM 42.2940 -69.9840 68° East 449 517 34,000  Level FlightAware
08:07PM 42.3260 -69.8800 67° East 451 519 34,000  Level FlightAware
08:07PM 42.3540 -69.7860 68° East 453 521 34,000  Level FlightAware
08:08PM 42.3800 -69.6980 68° East 453 521 34,000  Level FlightAware
08:09PM 42.4200 -69.5630 68° East 453 521 34,000  Level FlightAware
08:09PM 42.4560 -69.4420 68° East 452 520 34,000  Level FlightAware
08:10PM 42.4770 -69.3700 68° East 452 520 34,000  Level FlightAware
08:11PM 42.5320 -69.1840 68° East 452 520 34,000  Level FlightAware
08:12PM 42.5630 -69.0770 68° East 451 519 34,000  Level FlightAware
08:12PM 42.5970 -68.9620 68° East 451 519 34,000  Level FlightAware
08:13PM 42.6220 -68.8720 69° East 451 519 34,000  Level FlightAware
08:14PM 42.6610 -68.7410 68° East 34,000  Level FlightAware
08:14PM 42.6667 -68.6667 68° East 450 518 34,000  Level Moncton Center
08:15PM 42.7122 -68.5853 53° Northeast 438 504 34,000  Level Boston Center
08:20PM 42.9610 -67.6850 53° Northeast 462 532 34,000  Level FlightAware
08:21PM 42.9930 -67.5690 69° East 466 536 34,000  Level FlightAware
08:22PM 43.0490 -67.3680 69° East 468 539 34,000  Level FlightAware
08:23PM 43.0880 -67.2270 69° East 469 540 34,000  Level FlightAware
08:24PM 43.1260 -67.0870 70° East 475 547 34,000  Level FlightAware
08:25PM 43.1580 -66.9910 65° Northeast 467 537 34,000  Level FlightAware
08:25PM 43.1900 -66.9000 64° Northeast 467 537 34,000  Level FlightAware
08:26PM 43.2290 -66.7920 64° Northeast 467 537 34,000  Level FlightAware
08:27PM 43.3080 -66.6700 48° Northeast 467 537 34,000  Level FlightAware
08:28PM 43.3680 -66.5420 57° Northeast 465 535 34,000  Level FlightAware
08:28PM 43.4200 -66.4310 57° Northeast 467 537 34,000  Level FlightAware
08:29PM 43.4670 -66.3290 58° Northeast 468 539 34,000  Level FlightAware
08:30PM 43.5330 -66.1890 57° Northeast 470 541 34,000  Level FlightAware
08:31PM 43.5920 -66.0610 57° Northeast 476 548 34,000  Level FlightAware
08:31PM 43.6390 -65.9580 58° Northeast 477 549 34,000  Level FlightAware
08:32PM 43.6860 -65.8550 58° Northeast 479 551 34,000  Level FlightAware
08:33PM 43.7400 -65.7370 58° Northeast 481 554 34,000  Level FlightAware
08:33PM 43.7880 -65.6330 57° Northeast 483 556 34,000  Level FlightAware
08:34PM 43.8340 -65.5290 58° Northeast 483 556 34,000  Level FlightAware
08:35PM 43.8870 -65.4120 58° Northeast 484 557 34,000  Level FlightAware
08:35PM 43.9290 -65.3190 58° Northeast 483 556 34,000  Level FlightAware
08:36PM 43.9880 -65.1880 58° Northeast 483 556 34,000  Level FlightAware
08:37PM 44.0360 -65.0810 58° Northeast 478 550 34,000  Level FlightAware
08:38PM 44.0880 -64.9640 58° Northeast 478 550 34,000  Level FlightAware
08:38PM 44.1340 -64.8620 58° Northeast 477 549 34,000  Level FlightAware
08:39PM 44.1810 -64.7530 59° Northeast 475 547 34,000  Level FlightAware
08:40PM 44.2270 -64.6490 58° Northeast 475 547 34,000  Level FlightAware
08:40PM 44.2560 -64.5830 58° Northeast 475 547 34,000  Level FlightAware
08:41PM 44.3250 -64.4250 59° Northeast 477 549 34,000  Level FlightAware
08:42PM 44.3750 -64.3110 58° Northeast 487 560 34,000  Level FlightAware
08:42PM 44.4060 -64.2380 59° Northeast 485 558 34,000  Level FlightAware
08:43PM 44.4700 -64.0900 59° Northeast 479 551 34,000  Level FlightAware
08:44PM 44.5210 -63.9720 59° Northeast 476 548 34,000  Level FlightAware
08:45PM 44.5710 -63.8540 59° Northeast 476 548 34,000  Level FlightAware
08:45PM 44.6160 -63.7490 59° Northeast 480 552 34,000  Level FlightAware
08:46PM 44.6650 -63.6320 59° Northeast 486 559 34,000  Level FlightAware
08:47PM 44.7230 -63.4960 59° Northeast 493 567 34,000  Level FlightAware
08:48PM 44.7720 -63.3790 59° Northeast 496 571 34,000  Level FlightAware
08:48PM 44.8220 -63.2580 60° Northeast 503 579 34,000  Level FlightAware
08:49PM 44.8900 -63.0940 60° Northeast 505 581 34,000  Level FlightAware
08:50PM 44.9270 -63.0040 60° Northeast 505 581 34,000  Level FlightAware
08:51PM 44.9880 -62.8570 60° Northeast 505 581 34,000  Level FlightAware
08:51PM 45.0240 -62.7690 60° Northeast 505 581 34,000  Level FlightAware
08:52PM 45.0850 -62.6190 60° Northeast 505 581 34,000  Level FlightAware
08:53PM 45.1210 -62.5310 60° Northeast 505 581 34,000  Level FlightAware
08:54PM 45.1830 -62.3800 60° Northeast 505 581 34,000  Level FlightAware
08:55PM 45.2210 -62.2840 61° Northeast 505 581 34,000  Level FlightAware
08:55PM 45.2630 -62.1820 60° Northeast 505 581 34,000  Level FlightAware
08:56PM 45.2990 -62.0940 60° Northeast 505 581 34,000  Level FlightAware
08:57PM 45.3460 -61.9760 60° Northeast 505 581 34,000  Level FlightAware
08:57PM 45.3820 -61.8880 60° Northeast 505 581 34,000  Level FlightAware
08:58PM 45.4330 -61.7630 60° Northeast 505 581 34,000  Level FlightAware
08:59PM 45.4680 -61.6750 60° Northeast 505 581 34,000  Level FlightAware
09:00PM 45.5160 -61.5570 60° Northeast 505 581 34,000  Level FlightAware
09:01PM 45.7000 -61.0550 62° Northeast 509 586 34,000  Level FlightAware
09:02PM 45.7470 -60.9300 62° Northeast 510 587 34,000  Level FlightAware
09:02PM 45.7970 -60.7990 61° Northeast 513 590 34,000  Level FlightAware
09:03PM 45.8420 -60.6790 62° Northeast 514 592 34,000  Level FlightAware
09:04PM 45.8920 -60.5470 61° Northeast 518 596 34,000  Level FlightAware
09:04PM 45.9370 -60.4250 62° Northeast 518 596 34,000  Level FlightAware
09:05PM 45.9860 -60.2910 62° Northeast 520 598 34,000  Level FlightAware
09:06PM 46.0320 -60.1670 62° Northeast 522 601 34,000  Level FlightAware
09:07PM 46.0780 -60.0410 62° Northeast 523 602 34,000  Level FlightAware
09:07PM 46.1230 -59.9160 63° Northeast 526 605 34,000  Level FlightAware
09:08PM 46.1730 -59.7800 62° Northeast 528 608 34,000  Level FlightAware
09:09PM 46.2190 -59.6500 63° Northeast 531 611 34,000  Level FlightAware
09:09PM 46.2690 -59.5100 63° Northeast 533 613 34,000  Level FlightAware
09:10PM 46.3130 -59.3880 62° Northeast 535 616 34,000  Level FlightAware
09:10PM 46.3410 -59.3080 63° Northeast 536 617 34,000  Level FlightAware
09:11PM 46.4080 -59.1200 63° Northeast 540 621 34,000  Level FlightAware
09:12PM 46.4530 -58.9900 63° Northeast 543 625 34,000  Level FlightAware
09:13PM 46.5030 -58.8460 63° Northeast 545 627 34,000  Level FlightAware
09:14PM 46.5470 -58.7180 63° Northeast 545 627 34,000  Level FlightAware
09:14PM 46.5940 -58.5830 63° Northeast 545 627 34,000  Level FlightAware
09:15PM 46.6420 -58.4410 64° Northeast 545 627 34,000  Level FlightAware
09:16PM 46.6910 -58.2970 64° Northeast 559 643 34,000  Level FlightAware
09:16PM 46.7370 -58.1610 64° Northeast 570 656 34,000  Level FlightAware
09:18PM 46.8170 -57.9280 63° Northeast 576 663 34,000  Level FlightAware
09:18PM 46.8540 -57.8210 63° Northeast 576 663 34,000  Level FlightAware
09:19PM 46.9040 -57.6800 63° Northeast 576 663 34,000  Level FlightAware
09:20PM 46.9410 -57.5730 63° Northeast 576 663 34,000  Level FlightAware
09:20PM 47.0110 -57.3300 67° East 580 667 34,000  Level FlightAware
09:21PM 47.0490 -57.2080 65° Northeast 580 667 34,000  Level FlightAware
09:22PM 47.1160 -56.9900 66° East 584 672 34,000  Level FlightAware
09:23PM 47.1670 -56.8250 66° East 586 674 34,000  Level FlightAware
09:23PM 47.2180 -56.6590 66° East 587 676 34,000  Level FlightAware
09:24PM 47.2620 -56.5130 66° East 588 677 34,000  Level FlightAware
09:25PM 47.3020 -56.3800 66° East 588 677 34,000  Level FlightAware
09:25PM 47.3540 -56.2100 66° East 589 678 34,000  Level FlightAware
09:26PM 47.3860 -56.1040 66° East 589 678 34,000  Level FlightAware
09:27PM 47.4320 -55.9510 66° East 589 678 34,000  Level FlightAware
09:27PM 47.4670 -55.8350 66° East 589 678 34,000  Level FlightAware
09:28PM 47.5390 -55.5850 67° East 584 672 34,000  Level FlightAware
09:29PM 47.5830 -55.4350 66° East 581 669 34,000  Level FlightAware
09:30PM 47.6310 -55.2700 67° East 581 669 34,000  Level FlightAware
09:30PM 47.6700 -55.1320 67° East 579 666 34,000  Level FlightAware
09:31PM 47.7130 -54.9840 67° East 578 665 34,000  Level FlightAware
09:32PM 47.7600 -54.8180 67° East 578 665 34,000  Level FlightAware
09:32PM 47.7970 -54.6860 67° East 579 666 34,000  Level FlightAware
09:33PM 47.8500 -54.5010 67° East 578 665 34,000  Level FlightAware
09:34PM 47.8900 -54.3560 68° East 578 665 34,000  Level FlightAware
09:35PM 47.9310 -54.2090 67° East 579 666 34,000  Level FlightAware
09:35PM 47.9740 -54.0540 67° East 579 666 34,000  Level FlightAware
09:36PM 48.0180 -53.8940 68° East 579 666 34,000  Level FlightAware
09:37PM 48.0640 -53.7280 67° East 581 669 34,000  Level FlightAware
09:37PM 48.1040 -53.5790 68° East 581 669 34,000  Level FlightAware
09:38PM 48.1420 -53.4390 68° East 581 669 34,000  Level FlightAware
09:39PM 48.1880 -53.2670 68° East 580 667 34,000  Level FlightAware
09:39PM 48.2280 -53.1170 68° East 579 666 34,000  Level FlightAware
09:40PM 48.2870 -52.8950 68° East 578 665 34,000  Level FlightAware
09:41PM 48.3260 -52.7460 68° East 578 665 34,000  Level FlightAware
09:42PM 48.3620 -52.6120 68° East 577 664 34,000  Level FlightAware
09:42PM 48.4040 -52.4480 69° East 576 663 34,000  Level FlightAware
09:43PM 48.4630 -52.2230 68° East 574 661 34,000  Level FlightAware
09:44PM 48.5040 -52.0630 69° East 572 658 34,000  Level FlightAware
09:45PM 48.5270 -51.9720 69° East 571 657 34,000  Level FlightAware
09:45PM 48.5780 -51.7720 69° East 569 655 34,000  Level FlightAware
09:46PM 48.6280 -51.5730 69° East 569 655 34,000  Level FlightAware
09:47PM 48.6560 -51.4620 69° East 569 655 34,000  Level FlightAware
09:48PM 48.6950 -51.3100 69° East 569 655 34,000  Level FlightAware
09:48PM 48.7240 -51.1930 69° East 569 655 34,000  Level FlightAware
09:49PM 48.7630 -51.0410 69° East 569 655 34,000  Level FlightAware
09:50PM 48.7930 -50.9200 69° East 569 655 34,000  Level FlightAware
09:50PM 48.8220 -50.8060 69° East 569 655 34,000  Level FlightAware
09:51PM 48.8610 -50.6540 69° East 569 655 34,000  Level FlightAware
09:52PM 48.8900 -50.5390 69° East 569 655 34,000  Level FlightAware
09:53PM 48.9280 -50.3870 69° East 569 655 34,000  Level FlightAware
09:53PM 48.9570 -50.2720 69° East 569 655 34,000  Level FlightAware
09:54PM 48.9950 -50.1200 69° East 569 655 34,000  Level FlightAware
09:55PM 49.0240 -50.0050 69° East 569 655 34,000  Level FlightAware
09:56PM 49.0660 -49.8390 69° East 569 655 34,000  Level FlightAware
09:56PM 49.0500 -49.2833 69° East 550 633 34,000  Level Gander Center
09:57PM 49.0667 -49.1500 79° East 550 633 34,000  Level Gander Center
09:57PM 49.1000 -49.0667 59° Northeast 550 633 34,000  Level Gander Center
09:58PM 49.1167 -48.8333 84° East 550 633 34,000  Level Gander Center
09:59PM 49.1333 -48.7000 79° East 550 633 34,000  Level Gander Center
09:59PM 49.1500 -48.6167 73° East 550 633 34,000  Level Gander Center
10:00PM 49.1833 -48.3833 78° East 550 633 34,000  Level Gander Center
10:01PM 49.2167 -48.1333 78° East 550 633 34,000  Level Gander Center
10:02PM 49.2333 -48.0333 76° East 550 633 34,000  Level Gander Center
10:03PM 49.2667 -47.7833 78° East 550 633 34,000  Level Gander Center
10:03PM 49.2667 -47.7167 90° East 550 633 34,000  Level Gander Center
10:04PM 49.2833 -47.5667 80° East 550 633 34,000  Level Gander Center
10:05PM 49.3167 -47.3333 78° East 540 621 34,000  Level Gander Center
10:05PM 49.3167 -47.2500 90° East 540 621 34,000  Level Gander Center
10:06PM 49.3500 -47.0167 78° East 540 621 34,000  Level Gander Center
10:09PM 49.3978 -46.6269 79° East  Level FlightAware Approximate
10:16PM 49.5639 -45.1718 79° East  Level FlightAware Approximate
10:17PM 49.5861 -44.9632 81° East  Level FlightAware Approximate
10:18PM 49.6080 -44.7543 81° East  Level FlightAware Approximate
10:19PM 49.6295 -44.5453 81° East  Level FlightAware Approximate
10:20PM 49.6506 -44.3361 81° East  Level FlightAware Approximate
10:21PM 49.6713 -44.1267 81° East  Level FlightAware Approximate
10:22PM 49.6916 -43.9171 81° East  Level FlightAware Approximate
10:23PM 49.7116 -43.7074 82° East  Level FlightAware Approximate
10:24PM 49.7312 -43.4975 82° East  Level FlightAware Approximate
10:25PM 49.7504 -43.2874 82° East  Level FlightAware Approximate
10:26PM 49.7692 -43.0772 82° East  Level FlightAware Approximate
10:27PM 49.7877 -42.8667 82° East  Level FlightAware Approximate
10:28PM 49.8058 -42.6562 82° East  Level FlightAware Approximate
10:29PM 49.8234 -42.4455 83° East  Level FlightAware Approximate
10:30PM 49.8408 -42.2346 83° East  Level FlightAware Approximate
10:31PM 49.8577 -42.0235 83° East  Level FlightAware Approximate
10:32PM 49.8742 -41.8124 83° East  Level FlightAware Approximate
10:33PM 49.8904 -41.6011 83° East  Level FlightAware Approximate
10:34PM 49.9061 -41.3896 83° East  Level FlightAware Approximate
10:35PM 49.9215 -41.1780 83° East  Level FlightAware Approximate
10:36PM 49.9365 -40.9663 84° East  Level FlightAware Approximate
10:37PM 49.9511 -40.7545 84° East  Level FlightAware Approximate
10:38PM 49.9654 -40.5425 84° East  Level FlightAware Approximate
10:39PM 49.9792 -40.3304 84° East  Level FlightAware Approximate
10:40PM 49.9927 -40.1181 84° East  Level FlightAware Approximate
10:41PM 50.0129 -39.9075 78° East  Level FlightAware Approximate
10:42PM 50.0417 -39.6988 78° East  Level FlightAware Approximate
10:43PM 50.0701 -39.4898 78° East  Level FlightAware Approximate
10:44PM 50.0982 -39.2807 78° East  Level FlightAware Approximate
10:45PM 50.1259 -39.0713 78° East  Level FlightAware Approximate
10:46PM 50.1532 -38.8616 78° East  Level FlightAware Approximate
10:47PM 50.1801 -38.6517 79° East  Level FlightAware Approximate
10:48PM 50.2066 -38.4416 79° East  Level FlightAware Approximate
10:49PM 50.2328 -38.2312 79° East  Level FlightAware Approximate
10:50PM 50.2586 -38.0206 79° East  Level FlightAware Approximate
10:51PM 50.2840 -37.8098 79° East  Level FlightAware Approximate
10:52PM 50.3090 -37.5988 79° East  Level FlightAware Approximate
10:53PM 50.3346 -37.3878 79° East  Level FlightAware Approximate
10:54PM 50.3602 -37.1767 79° East  Level FlightAware Approximate
10:55PM 50.3855 -36.9654 79° East  Level FlightAware Approximate
10:56PM 50.4103 -36.7539 79° East  Level FlightAware Approximate
10:57PM 50.4348 -36.5421 80° East  Level FlightAware Approximate
10:58PM 50.4589 -36.3301 80° East  Level FlightAware Approximate
10:59PM 50.4826 -36.1179 80° East  Level FlightAware Approximate
11:00PM 50.5059 -35.9055 80° East  Level FlightAware Approximate
11:01PM 50.5289 -35.6929 80° East  Level FlightAware Approximate
11:02PM 50.5514 -35.4801 80° East  Level FlightAware Approximate
11:03PM 50.5736 -35.2671 81° East  Level FlightAware Approximate
11:04PM 50.5954 -35.0539 81° East  Level FlightAware Approximate
11:05PM 50.6167 -34.8405 81° East  Level FlightAware Approximate
11:06PM 50.6377 -34.6269 81° East  Level FlightAware Approximate
11:07PM 50.6583 -34.4131 81° East  Level FlightAware Approximate
11:08PM 50.6786 -34.1991 81° East  Level FlightAware Approximate
11:09PM 50.6984 -33.9850 82° East  Level FlightAware Approximate
11:10PM 50.7178 -33.7706 82° East  Level FlightAware Approximate
11:11PM 50.7372 -33.5562 82° East  Level FlightAware Approximate
11:12PM 50.7563 -33.3416 82° East  Level FlightAware Approximate
11:13PM 50.7749 -33.1268 82° East  Level FlightAware Approximate
11:14PM 50.7931 -32.9118 82° East  Level FlightAware Approximate
11:15PM 50.8109 -32.6967 82° East  Level FlightAware Approximate
11:16PM 50.8284 -32.4814 83° East  Level FlightAware Approximate
11:17PM 50.8454 -32.2660 83° East  Level FlightAware Approximate
11:18PM 50.8621 -32.0504 83° East  Level FlightAware Approximate
11:19PM 50.8783 -31.8347 83° East  Level FlightAware Approximate
11:20PM 50.8942 -31.6188 83° East  Level FlightAware Approximate
11:21PM 50.9096 -31.4028 83° East  Level FlightAware Approximate
11:22PM 50.9247 -31.1866 84° East  Level FlightAware Approximate
11:23PM 50.9393 -30.9702 84° East  Level FlightAware Approximate
11:24PM 50.9536 -30.7538 84° East  Level FlightAware Approximate
11:25PM 50.9674 -30.5372 84° East  Level FlightAware Approximate
11:26PM 50.9809 -30.3205 84° East  Level FlightAware Approximate
11:27PM 50.9939 -30.1037 84° East  Level FlightAware Approximate
11:28PM 50.9936 -29.8867 95° East  Level FlightAware Approximate
11:29PM 50.9812 -29.6698 95° East  Level FlightAware Approximate
11:30PM 50.9683 -29.4530 95° East  Level FlightAware Approximate
11:31PM 50.9550 -29.2363 95° East  Level FlightAware Approximate
11:32PM 50.9413 -29.0198 96° East  Level FlightAware Approximate
11:33PM 50.9272 -28.8033 96° East  Level FlightAware Approximate
11:34PM 50.9128 -28.5870 96° East  Level FlightAware Approximate
11:35PM 50.8979 -28.3709 96° East  Level FlightAware Approximate
11:36PM 50.8826 -28.1549 96° East  Level FlightAware Approximate
11:37PM 50.8669 -27.9390 96° East  Level FlightAware Approximate
11:38PM 50.8508 -27.7233 97° East  Level FlightAware Approximate
11:39PM 50.8344 -27.5077 97° East  Level FlightAware Approximate
11:40PM 50.8175 -27.2923 97° East  Level FlightAware Approximate
11:41PM 50.8002 -27.0770 97° East  Level FlightAware Approximate
11:42PM 50.7826 -26.8619 97° East  Level FlightAware Approximate
11:43PM 50.7645 -26.6470 97° East  Level FlightAware Approximate
11:44PM 50.7461 -26.4322 98° East  Level FlightAware Approximate
11:45PM 50.7272 -26.2176 98° East  Level FlightAware Approximate
11:46PM 50.7080 -26.0032 98° East  Level FlightAware Approximate
11:47PM 50.6883 -25.7890 98° East  Level FlightAware Approximate
11:48PM 50.6683 -25.5749 98° East  Level FlightAware Approximate
11:49PM 50.6479 -25.3610 98° East  Level FlightAware Approximate
11:50PM 50.6271 -25.1473 99° East  Level FlightAware Approximate
11:51PM 50.6059 -24.9338 99° East  Level FlightAware Approximate
11:52PM 50.5843 -24.7205 99° East  Level FlightAware Approximate
11:53PM 50.5623 -24.5074 99° East  Level FlightAware Approximate
11:54PM 50.5399 -24.2945 99° East  Level FlightAware Approximate
11:55PM 50.5172 -24.0818 99° East  Level FlightAware Approximate
11:56PM 50.4940 -23.8693 100° East  Level FlightAware Approximate
11:57PM 50.4705 -23.6570 100° East  Level FlightAware Approximate
11:58PM 50.4466 -23.4449 100° East  Level FlightAware Approximate
11:59PM 50.4223 -23.2331 100° East  Level FlightAware Approximate
12:00AM 50.3976 -23.0214 100° East  Level FlightAware Approximate
12:01AM 50.3725 -22.8100 100° East  Level FlightAware Approximate
12:02AM 50.3471 -22.5988 101° East  Level FlightAware Approximate
12:03AM 50.3212 -22.3878 101° East  Level FlightAware Approximate
12:04AM 50.2950 -22.1771 101° East  Level FlightAware Approximate
12:05AM 50.2684 -21.9666 101° East  Level FlightAware Approximate
12:06AM 50.2415 -21.7563 101° East  Level FlightAware Approximate
12:07AM 50.2141 -21.5463 101° East  Level FlightAware Approximate
12:08AM 50.1864 -21.3365 102° East  Level FlightAware Approximate
12:09AM 50.1583 -21.1270 102° East  Level FlightAware Approximate
12:10AM 50.1298 -20.9177 102° East  Level FlightAware Approximate
12:11AM 50.1009 -20.7087 102° East  Level FlightAware Approximate
12:12AM 50.0717 -20.4999 102° East  Level FlightAware Approximate
12:13AM 50.0421 -20.2913 102° East  Level FlightAware Approximate
12:14AM 50.0121 -20.0831 103° East  Level FlightAware Approximate
12:15AM 50.0238 -19.8773 73° East  Level FlightAware Approximate
12:16AM 50.0632 -19.6728 73° East  Level FlightAware Approximate
12:17AM 50.1022 -19.4679 73° East  Level FlightAware Approximate
12:18AM 50.1409 -19.2627 74° East  Level FlightAware Approximate
12:19AM 50.1791 -19.0572 74° East  Level FlightAware Approximate
12:20AM 50.2171 -18.8514 74° East  Level FlightAware Approximate
12:21AM 50.2546 -18.6452 74° East  Level FlightAware Approximate
12:22AM 50.2918 -18.4387 74° East  Level FlightAware Approximate
12:23AM 50.3287 -18.2319 74° East  Level FlightAware Approximate
12:24AM 50.3651 -18.0247 74° East  Level FlightAware Approximate
12:25AM 50.4012 -17.8173 75° East  Level FlightAware Approximate
12:26AM 50.4369 -17.6095 75° East  Level FlightAware Approximate
12:27AM 50.4723 -17.4014 75° East  Level FlightAware Approximate
12:28AM 50.5073 -17.1931 75° East  Level FlightAware Approximate
12:29AM 50.5419 -16.9844 75° East  Level FlightAware Approximate
12:30AM 50.5761 -16.7754 75° East  Level FlightAware Approximate
12:31AM 50.6100 -16.5660 76° East  Level FlightAware Approximate
12:32AM 50.6435 -16.3564 76° East  Level FlightAware Approximate
12:33AM 50.6766 -16.1465 76° East  Level FlightAware Approximate
12:34AM 50.7093 -15.9363 76° East  Level FlightAware Approximate
12:35AM 50.7417 -15.7259 76° East  Level FlightAware Approximate
12:36AM 50.7736 -15.5151 76° East  Level FlightAware Approximate
12:37AM 50.8052 -15.3040 77° East  Level FlightAware Approximate
12:38AM 50.8364 -15.0927 77° East  Level FlightAware Approximate
12:39AM 50.8671 -14.8810 77° East  Level FlightAware Approximate
12:40AM 50.8973 -14.6690 77° East  Level FlightAware Approximate
12:41AM 50.9271 -14.4567 77° East  Level FlightAware Approximate
12:42AM 50.9566 -14.2442 78° East  Level FlightAware Approximate
12:43AM 50.9856 -14.0314 78° East  Level FlightAware Approximate
12:44AM 51.0142 -13.8183 78° East  Level FlightAware Approximate
12:45AM 51.0435 -13.6053 78° East  Level FlightAware Approximate
12:46AM 51.0724 -13.3921 78° East  Level FlightAware Approximate
12:47AM 51.1010 -13.1786 78° East  Level FlightAware Approximate
12:48AM 51.1292 -12.9648 78° East  Level FlightAware Approximate
12:49AM 51.1570 -12.7508 78° East  Level FlightAware Approximate
12:50AM 51.1844 -12.5365 78° East  Level FlightAware Approximate
12:51AM 51.2114 -12.3220 79° East  Level FlightAware Approximate
12:51AM 50.8880 -10.9190 79° East 505 581 35,000  Level FlightAware
12:52AM 51.2380 -12.1072 79° East  Level FlightAware Approximate
12:52AM 50.9130 -10.8080 70° East 505 581 35,000  Level FlightAware
12:53AM 50.9640 -10.5850 70° East 507 583 35,000  Level FlightAware
12:54AM 50.9970 -10.4320 71° East 508 585 35,000  Level FlightAware
12:54AM 51.0290 -10.2920 70° East 510 587 35,000  Level FlightAware
12:55AM 51.0550 -10.1730 71° East 510 587 35,000  Level FlightAware
12:56AM 51.0940 -9.9950 71° East 511 588 35,000  Level FlightAware
12:57AM 51.1360 -9.8020 71° East 511 588 35,000  Level FlightAware
12:57AM 51.1720 -9.6360 71° East 512 589 35,000  Level FlightAware
12:58AM 51.2010 -9.4990 71° East 512 589 35,000  Level FlightAware
12:59AM 51.2470 -9.2860 71° East 513 590 35,000  Level FlightAware
01:00AM 51.2760 -9.1480 71° East 512 589 35,000  Level FlightAware
01:00AM 51.3070 -9.0010 71° East 513 590 35,000  Level FlightAware
01:01AM 51.3240 -8.9190 72° East 513 590 35,000  Level FlightAware
01:01AM 51.3282 -8.8717 72° East 464 534 35,000  Level FlightAware UK
01:02AM 51.3590 -8.7500 72° East 515 593 35,000  Level FlightAware
01:02AM 51.3505 -8.7645 72° East 464 534 35,000  Level FlightAware UK
01:02AM 51.3728 -8.6571 72° East 464 534 35,000  Level FlightAware UK
01:02AM 51.3920 -8.5910 72° East 516 594 35,000  Level FlightAware
01:03AM 51.3949 -8.5494 72° East 464 534 35,000  Level FlightAware UK
01:03AM 51.4210 -8.4500 72° East 518 596 35,000  Level FlightAware
01:03AM 51.4168 -8.4410 72° East 462 532 35,000  Level FlightAware UK
01:04AM 51.4389 -8.3323 72° East 464 534 35,000  Level FlightAware UK
01:04AM 51.4550 -8.2840 72° East 520 598 35,000  Level FlightAware
01:04AM 51.4609 -8.2224 72° East 462 532 35,000  Level FlightAware UK
01:04AM 51.4840 -8.1390 72° East 523 602 35,000  Level FlightAware
01:05AM 51.5050 -8.0370 72° East 523 602 35,000  Level FlightAware
01:05AM 51.5057 -8.0018 72° East 462 532 35,000  Level FlightAware UK
01:06AM 51.5390 -7.8660 72° East 526 605 35,000  Level FlightAware
01:06AM 51.5278 -7.8912 72° East 464 534 35,000  Level FlightAware UK
01:06AM 51.5498 -7.7803 72° East 464 534 35,000  Level FlightAware UK
01:06AM 51.5700 -7.7100 72° East 527 606 35,000  Level FlightAware
01:07AM 51.5719 -7.6688 72° East 466 536 35,000  Level FlightAware UK
01:07AM 51.6010 -7.5540 72° East 529 609 35,000  Level FlightAware
01:08AM 51.6290 -7.4090 73° East 531 611 35,000  Level FlightAware
01:08AM 51.6640 -7.2290 73° East 533 613 35,000  Level FlightAware
01:09AM 51.6930 -7.0780 73° East 535 616 35,000  Level FlightAware
01:09AM 51.6938 -7.0381 73° East 460 529 35,000  Level FlightAware UK
01:10AM 51.7230 -6.9260 73° East 537 618 35,000  Level FlightAware
01:10AM 51.7361 -6.8094 73° East 460 529 35,000  Level FlightAware UK
01:10AM 51.7550 -6.7560 73° East 539 620 35,000  Level FlightAware
01:11AM 51.7576 -6.6944 73° East 460 529 35,000  Level FlightAware UK
01:11AM 51.7760 -6.6460 73° East 540 621 35,000  Level FlightAware
01:12AM 51.7632 -6.5305 73° East 458 527 35,000  Level FlightAware UK
01:12AM 51.7790 -6.4820 73° East 522 601 35,000  Level FlightAware
01:12AM 51.7556 -6.4146 73° East 460 529 35,000  Level FlightAware UK
01:12AM 51.7670 -6.3020 73° East 524 603 35,000  Level FlightAware
01:13AM 51.7380 -6.1819 73° East 460 529 35,000  Level FlightAware UK
01:13AM 51.7570 -6.1540 73° East 527 606 35,000  Level FlightAware
01:14AM 51.7294 -6.0418 73° East 462 532 35,000  Level FlightAware UK
01:14AM 51.7460 -5.9680 73° East 532 612 35,000  Level FlightAware
01:14AM 51.7225 -5.9230 73° East 462 532 35,000  Level FlightAware UK
01:15AM 51.7380 -5.8170 73° East 535 616 35,000  Level FlightAware
01:15AM 51.7080 -5.6857 73° East 464 534 35,000  Level FlightAware UK
01:16AM 51.6995 -5.5422 95° East 466 536 35,000  Level FlightAware UK
01:16AM 51.7270 -5.6360 95° East 537 618 35,000 -420 Level FlightAware
01:16AM 51.6920 -5.4227 95° East 464 534 34,800 -600 Descending FlightAware UK
01:17AM 51.7080 -5.3120 95° East 536 617 34,600 -900 Descending FlightAware
01:17AM 51.6757 -5.1845 95° East 464 534 33,900 -900 Descending FlightAware UK
01:17AM 51.6960 -5.1260 95° East 530 610 33,900 -840 Level FlightAware
01:18AM 51.6675 -5.0665 95° East 462 532 33,500 -1,080 Descending FlightAware UK
01:18AM 51.6860 -4.9660 95° East 525 604 33,200 -540 Descending FlightAware
01:19AM 51.6760 -4.8130 96° East 518 596 33,000 -180 Descending FlightAware
01:19AM 51.6414 -4.6979 96° East 458 527 33,000  Level FlightAware UK
01:19AM 51.6640 -4.6450 96° East 517 595 33,000  Level FlightAware
01:20AM 51.6331 -4.5833 96° East 462 532 33,000  Level FlightAware UK
01:20AM 51.6530 -4.4820 96° East 518 596 33,000  Level FlightAware
01:21AM 51.6430 -4.3390 96° East 519 597 33,000 -420 Level FlightAware
01:21AM 51.6075 -4.2372 96° East 460 529 32,500 -960 Descending FlightAware UK
01:22AM 51.6300 -4.1610 96° East 521 600 32,300 -1,680 Descending FlightAware
01:22AM 51.5967 -4.0994 96° East 464 534 31,500 -1,800 Descending FlightAware UK
01:22AM 51.6180 -4.0040 96° East 530 610 31,100 -1,620 Descending FlightAware
01:22AM 51.5872 -3.9810 96° East 470 541 30,700 -1,200 Descending FlightAware UK
01:23AM 51.6070 -3.8490 96° East 529 609 30,300 -900 Descending FlightAware
01:23AM 51.5689 -3.7468 96° East 470 541 29,800 -840 Descending FlightAware UK
01:24AM 51.5930 -3.6750 96° East 522 601 29,700 -1,020 Descending FlightAware
01:24AM 51.5596 -3.6310 96° East 468 539 29,300 -960 Descending FlightAware UK
01:24AM 51.5800 -3.5050 96° East 518 596 29,000 -960 Descending FlightAware
01:25AM 51.5700 -3.3840 96° East 516 594 28,400 -1,200 Descending FlightAware
01:25AM 51.5404 -3.4013 96° East 464 534 28,300 -1,140 Descending FlightAware UK
01:25AM 51.5309 -3.2875 96° East 464 534 27,800 -840 Descending FlightAware UK
01:26AM 51.5560 -3.2080 96° East 511 588 27,700 -780 Descending FlightAware
01:26AM 51.5211 -3.1734 96° East 462 532 27,400 -900 Descending FlightAware UK
01:26AM 51.5440 -3.0610 96° East 507 583 27,100 -1,020 Descending FlightAware
01:27AM 51.4998 -2.9274 96° East 458 527 26,300 -1,080 Descending FlightAware UK
01:27AM 51.5300 -2.8910 96° East 501 577 26,300 -2,220 Level FlightAware
01:28AM 51.4898 -2.8165 96° East 454 522 25,200 -1,920 Descending FlightAware UK
01:28AM 51.5170 -2.7430 96° East 500 575 25,000 -1,620 Descending FlightAware
01:28AM 51.4800 -2.7057 96° East 452 520 24,400 -1,620 Descending FlightAware UK
01:28AM 51.5037 -2.5909 96° East 495 570 23,900 -1,140 Descending FlightAware ADS-B
01:29AM 51.4937 -2.4789 98° East 492 566 23,400 -1,200 Descending FlightAware ADS-B
01:29AM 51.4838 -2.3679 98° East 488 562 22,700 -1,860 Descending FlightAware ADS-B
01:30AM 51.4733 -2.2524 98° East 483 556 21,500 -2,160 Descending FlightAware ADS-B
01:31AM 51.4635 -2.1466 98° East 477 549 20,500 -2,100 Descending FlightAware ADS-B
01:31AM 51.4520 -2.0225 98° East 470 541 19,200 -2,100 Descending FlightAware ADS-B
01:32AM 51.4422 -1.9200 99° East 465 535 18,200 -2,100 Descending FlightAware ADS-B
01:32AM 51.4324 -1.8164 99° East 457 526 17,100 -2,220 Descending FlightAware ADS-B
01:33AM 51.4229 -1.7165 99° East 451 519 16,000 -2,160 Descending FlightAware ADS-B
01:33AM 51.4127 -1.6135 99° East 444 511 14,900 -2,160 Descending FlightAware ADS-B
01:33AM 51.3727 -1.5780 99° East 406 467 14,200 -1,800 Descending FlightAware UK
01:34AM 51.4019 -1.5165 99° East 430 495 14,000 -600 Descending FlightAware ADS-B
01:34AM 51.3603 -1.4851 99° East 378 435 13,900 -420 Descending FlightAware UK
01:34AM 51.3885 -1.4197 99° East 399 459 13,800 -840 Descending FlightAware ADS-B
01:34AM 51.3476 -1.3988 99° East 358 412 13,500 -1,020 Descending FlightAware UK
01:35AM 51.3761 -1.3357 99° East 375 432 13,300 -840 Descending FlightAware ADS-B
01:35AM 51.3355 -1.3175 99° East 334 384 13,100 -600 Descending FlightAware UK
01:35AM 51.3643 -1.2566 99° East 351 404 13,000 -600 Descending FlightAware ADS-B
01:36AM 51.3537 -1.1846 103° East 338 389 12,700 -840 Descending FlightAware ADS-B
01:36AM 51.3485 -1.1277 98° East 335 386 12,300 -780 Descending FlightAware ADS-B
01:37AM 51.3470 -1.0535 92° East 329 379 12,000 -720 Descending FlightAware ADS-B
01:37AM 51.3113 -1.0195 92° East 296 341 11,700 -840 Descending FlightAware UK
01:37AM 51.3465 -0.9798 92° East 331 381 11,600 -780 Descending FlightAware ADS-B
01:37AM 51.3109 -0.9452 92° East 296 341 11,300 -600 Descending FlightAware UK
01:38AM 51.3461 -0.9061 92° East 328 377 11,300 -600 Level FlightAware ADS-B
01:38AM 51.3104 -0.8719 92° East 294 338 11,000 -840 Descending FlightAware UK
01:38AM 51.3454 -0.8336 92° East 325 374 10,900 -660 Descending FlightAware ADS-B
01:39AM 51.3448 -0.7616 91° East 323 372 10,600 -720 Descending FlightAware ADS-B
01:39AM 51.3439 -0.6902 91° East 316 364 10,200 -720 Descending FlightAware ADS-B
01:39AM 51.3432 -0.6436 91° East 307 353 10,000 -360 Descending FlightAware ADS-B
01:40AM 51.3429 -0.6071 91° East 292 336 10,000 -180 Level FlightAware ADS-B
01:40AM 51.3070 -0.5799 91° East 260 299 9,900  Descending FlightAware UK
01:40AM 51.3422 -0.5436 91° East 279 321 10,000 180 Climbing FlightAware ADS-B
01:41AM 51.3062 -0.5174 91° East 262 302 10,000  Level FlightAware UK
01:41AM 51.3412 -0.4810 91° East 278 320 10,000  Level FlightAware ADS-B
01:41AM 51.3405 -0.4279 91° East 277 319 10,000  Level FlightAware ADS-B
01:41AM 51.3409 -0.4148 87° East 278 320 10,000  Level FlightAware ADS-B
01:41AM 51.3415 -0.4080 82° East 277 319 10,000  Level FlightAware ADS-B
01:41AM 51.3426 -0.4010 76° East 276 318 10,000 -1,020 Level FlightAware ADS-B
01:41AM 51.3440 -0.3949 70° East 277 319 9,900 -900 Descending FlightAware ADS-B
01:42AM 51.3460 -0.3885 64° Northeast 275 316 9,900 -720 Level FlightAware ADS-B
01:42AM 51.3496 -0.3801 56° Northeast 273 314 9,800 -720 Descending FlightAware ADS-B
01:42AM 51.3537 -0.3735 45° Northeast 272 313 9,800 -780 Level FlightAware ADS-B
01:42AM 51.3570 -0.3692 39° Northeast 270 311 9,700 -1,380 Descending FlightAware ADS-B
01:42AM 51.3622 -0.3641 32° Northeast 268 308 9,600 -1,380 Descending FlightAware ADS-B
01:42AM 51.3673 -0.3607 22° Northeast 265 305 9,500 -900 Descending FlightAware ADS-B
01:42AM 51.3711 -0.3589 17° North 264 304 9,500 -900 Level FlightAware ADS-B
01:42AM 51.3756 -0.3577 North 263 303 9,400 -1,500 Descending FlightAware ADS-B
01:42AM 51.3799 -0.3574 North 262 302 9,300 -1,740 Descending FlightAware ADS-B
01:42AM 51.3843 -0.3572 North 261 300 9,200 -1,440 Descending FlightAware ADS-B
01:42AM 51.3962 -0.3574 359° North 261 300 9,000 -1,260 Descending FlightAware ADS-B
01:43AM 51.4125 -0.3572 360° North 263 303 8,700 -1,320 Descending FlightAware ADS-B
01:43AM 51.4184 -0.3565 North 264 304 8,600 -1,500 Descending FlightAware ADS-B
01:43AM 51.4222 -0.3553 11° North 266 306 8,500 -1,500 Descending FlightAware ADS-B
01:43AM 51.4279 -0.3523 18° North 267 307 8,400 -1,500 Descending FlightAware ADS-B
01:43AM 51.4314 -0.3496 25° Northeast 268 308 8,300 -1,020 Descending FlightAware ADS-B
01:43AM 51.4348 -0.3461 33° Northeast 269 310 8,300 -1,020 Level FlightAware ADS-B
01:43AM 51.4426 -0.3345 43° Northeast 270 311 8,100 -1,320 Descending FlightAware ADS-B
01:43AM 51.4464 -0.3253 57° Northeast 269 310 8,000 -1,680 Descending FlightAware ADS-B
01:43AM 51.4492 -0.3146 67° East 268 308 7,800 -1,380 Descending FlightAware ADS-B
01:43AM 51.4502 -0.3083 76° East 267 307 7,800 -720 Level FlightAware ADS-B
01:43AM 51.4509 -0.2982 84° East 265 305 7,700 -1,380 Descending FlightAware ADS-B
01:43AM 51.4508 -0.2914 91° East 265 305 7,600 -1,680 Descending FlightAware ADS-B
01:44AM 51.4491 -0.2618 95° East 265 305 7,200 -1,200 Descending FlightAware ADS-B
01:44AM 51.4473 -0.2319 96° East 264 304 7,000 -480 Descending FlightAware ADS-B
01:44AM 51.4460 -0.2104 96° East 264 304 7,000 -480 Level FlightAware ADS-B
01:44AM 51.4455 -0.2041 97° East 263 303 6,900 -900 Descending FlightAware ADS-B
01:44AM 51.4448 -0.1976 100° East 262 302 6,900 -720 Level FlightAware ADS-B
01:44AM 51.4426 -0.1875 109° East 258 297 6,800 -1,320 Descending FlightAware ADS-B
01:44AM 51.4373 -0.1736 121° Southeast 254 292 6,600 -1,020 Descending FlightAware ADS-B
01:45AM 51.4271 -0.1499 125° Southeast 253 291 6,400 -1,200 Descending FlightAware ADS-B
01:45AM 51.4173 -0.1263 124° Southeast 254 292 6,000 -840 Descending FlightAware ADS-B
01:45AM 51.4075 -0.1025 123° Southeast 257 296 6,000  Level FlightAware ADS-B
01:45AM 51.3993 -0.0819 123° Southeast 262 302 6,000  Level FlightAware ADS-B
01:45AM 51.3970 -0.0750 118° Southeast 264 304 6,000  Level FlightAware ADS-B
01:46AM 51.3951 -0.0666 110° East 268 308 6,000  Level FlightAware ADS-B
01:46AM 51.3939 -0.0554 100° East 271 312 6,000  Level FlightAware ADS-B
01:46AM 51.3937 -0.0488 93° East 272 313 6,000  Level FlightAware ADS-B
01:46AM 51.3941 -0.0410 85° East 274 315 6,000  Level FlightAware ADS-B
01:46AM 51.3953 -0.0321 78° East 274 315 6,000  Level FlightAware ADS-B
01:46AM 51.3972 -0.0237 70° East 274 315 6,000  Level FlightAware ADS-B
01:46AM 51.4031 -0.0086 58° Northeast 273 314 6,000  Level FlightAware ADS-B
01:46AM 51.4162 0.0151 48° Northeast 275 316 6,000  Level FlightAware ADS-B
01:46AM 51.4259 0.0329 49° Northeast 274 315 6,000  Level FlightAware ADS-B
01:47AM 51.4301 0.0394 44° Northeast 272 313 6,000  Level FlightAware ADS-B
01:47AM 51.4333 0.0436 39° Northeast 270 311 6,000  Level FlightAware ADS-B
01:47AM 51.4365 0.0467 31° Northeast 267 307 6,000  Level FlightAware ADS-B
01:47AM 51.4455 0.0524 22° Northeast 256 295 6,000  Level FlightAware ADS-B
01:47AM 51.4502 0.0539 11° North 246 283 6,000  Level FlightAware ADS-B
01:47AM 51.4580 0.0551 North 236 272 6,000  Level FlightAware ADS-B
01:47AM 51.4655 0.0552 North 221 254 6,000  Level FlightAware ADS-B
01:47AM 51.4712 0.0535 349° North 213 245 6,000  Level FlightAware ADS-B
01:47AM 51.4747 0.0512 338° Northwest 203 234 6,000 -780 Level FlightAware ADS-B
01:47AM 51.4780 0.0480 328° Northwest 197 227 5,900 -780 Descending FlightAware ADS-B
01:47AM 51.4807 0.0445 321° Northwest 190 219 5,900 -900 Level FlightAware ADS-B
01:47AM 51.4824 0.0413 311° West 187 215 5,800 -900 Descending FlightAware ADS-B
01:48AM 51.4848 0.0362 307° West 183 211 5,800 -600 Level FlightAware ADS-B
01:48AM 51.4925 0.0166 302° West 179 206 5,600 -600 Descending FlightAware ADS-B
01:48AM 51.4940 0.0120 297° West 177 204 5,600 -780 Level FlightAware ADS-B
01:48AM 51.4952 0.0068 290° West 173 199 5,500 -720 Descending FlightAware ADS-B
01:48AM 51.4961 0.0010 284° West 173 199 5,500 -960 Level FlightAware ADS-B
01:48AM 51.4972 -0.0092 280° West 173 199 5,300 -1,320 Descending FlightAware ADS-B
01:48AM 51.4979 -0.0167 279° West 171 197 5,200 -900 Descending FlightAware ADS-B
01:49AM 51.4984 -0.0357 272° West 168 193 5,000 -780 Descending FlightAware ADS-B
01:49AM 51.4984 -0.0468 270° West 163 188 4,900 -1,020 Descending FlightAware ADS-B
01:49AM 51.4979 -0.0648 267° West 159 183 4,600 -1,020 Descending FlightAware ADS-B
01:49AM 51.4975 -0.0824 268° West 157 181 4,400 -780 Descending FlightAware ADS-B
01:49AM 51.4974 -0.1009 270° West 157 181 4,200 -960 Descending FlightAware ADS-B
01:50AM 51.4972 -0.1198 269° West 157 181 3,900 -960 Descending FlightAware ADS-B
01:50AM 51.4969 -0.1381 268° West 156 180 3,700 -780 Descending FlightAware ADS-B
01:50AM 51.4967 -0.1561 269° West 157 181 3,500 -960 Descending FlightAware ADS-B
01:51AM 51.4964 -0.1768 269° West 157 181 3,200 -900 Descending FlightAware ADS-B
01:51AM 51.4962 -0.1958 269° West 157 181 3,000 -840 Descending FlightAware ADS-B
01:51AM 51.4958 -0.2188 268° West 156 180 2,700 -840 Descending FlightAware ADS-B
01:52AM 51.4953 -0.2451 268° West 152 175 2,400 -900 Descending FlightAware ADS-B
01:52AM 51.4950 -0.2732 269° West 152 175 2,000 -960 Descending FlightAware ADS-B
01:52AM 51.4653 -0.2987 269° West 166 191 1,700 -720 Descending FlightAware UK
01:53AM 51.4940 -0.3090 269° West 148 170 1,600 -720 Descending FlightAware
01:53AM 51.4940 -0.3390 270° West 141 162 1,200 -840 Descending FlightAware
01:53AM 51.4652 -0.3625 270° West 156 180 1,000 -720 Descending FlightAware UK
01:53AM 51.4930 -0.3660 270° West 144 166 900 -840 Descending FlightAware
01:54AM 51.4920 -0.4000 267° West 150 173 500 -960 Descending FlightAware
01:54AM 51.4649 -0.4213 267° West 156 180 200 -120 Descending FlightAware UK
01:55AM 51.4920 -0.4360 267° West 149 171 400 240 Climbing FlightAware
01:58AM 51.4667 -0.4500 90° East  Level FlightAware Approximate